sensor_id;sensor_type;location;lat;lon;timestamp;P1;durP1;ratioP1;P2;durP2;ratioP2
19006;SDS011;9636;47.382;8.480;2022-10-30T01:34:22;21.00;;;9.10;;
19006;SDS011;9636;47.382;8.480;2022-10-30T01:40:19;18.17;;;8.57;;
19006;SDS011;9636;47.382;8.480;2022-10-30T01:46:53;14.77;;;8.27;;
19006;SDS011;9636;47.382;8.480;2022-10-30T02:19:23;13.97;;;8.20;;
19006;SDS011;9636;47.382;8.480;2022-10-30T02:26:10;16.60;;;8.60;;
19006;SDS011;9636;47.382;8.480;2022-10-30T02:29:14;22.43;;;8.40;;
19006;SDS011;9636;47.382;8.480;2022-10-30T02:35:54;13.50;;;7.80;;
19006;SDS011;9636;47.382;8.480;2022-10-30T05:21:48;15.60;;;8.50;;
19006;SDS011;9636;47.382;8.480;2022-10-30T05:24:15;16.53;;;9.27;;
19006;SDS011;9636;47.382;8.480;2022-10-30T05:26:42;18.20;;;9.57;;
19006;SDS011;9636;47.382;8.480;2022-10-30T05:29:09;19.77;;;9.73;;
19006;SDS011;9636;47.382;8.480;2022-10-30T05:31:35;16.67;;;9.77;;
19006;SDS011;9636;47.382;8.480;2022-10-30T05:34:02;16.97;;;9.97;;
19006;SDS011;9636;47.382;8.480;2022-10-30T05:36:29;14.33;;;9.40;;
19006;SDS011;9636;47.382;8.480;2022-10-30T05:38:57;20.27;;;9.07;;
19006;SDS011;9636;47.382;8.480;2022-10-30T05:41:24;18.30;;;10.13;;
19006;SDS011;9636;47.382;8.480;2022-10-30T05:43:51;19.27;;;11.07;;
19006;SDS011;9636;47.382;8.480;2022-10-30T05:46:17;19.50;;;10.63;;
19006;SDS011;9636;47.382;8.480;2022-10-30T05:48:44;17.53;;;10.80;;
19006;SDS011;9636;47.382;8.480;2022-10-30T05:51:11;17.00;;;10.43;;
19006;SDS011;9636;47.382;8.480;2022-10-30T05:53:38;18.63;;;9.23;;
19006;SDS011;9636;47.382;8.480;2022-10-30T05:56:06;17.90;;;9.63;;
19006;SDS011;9636;47.382;8.480;2022-10-30T05:58:33;14.60;;;9.40;;
19006;SDS011;9636;47.382;8.480;2022-10-30T06:01:03;20.53;;;9.63;;
19006;SDS011;9636;47.382;8.480;2022-10-30T06:03:30;12.93;;;9.43;;
19006;SDS011;9636;47.382;8.480;2022-10-30T06:05:57;24.83;;;10.07;;
19006;SDS011;9636;47.382;8.480;2022-10-30T06:08:24;19.03;;;9.77;;
19006;SDS011;9636;47.382;8.480;2022-10-30T06:10:52;21.57;;;10.33;;
19006;SDS011;9636;47.382;8.480;2022-10-30T06:13:20;21.90;;;10.63;;
19006;SDS011;9636;47.382;8.480;2022-10-30T06:15:47;24.97;;;10.73;;
19006;SDS011;9636;47.382;8.480;2022-10-30T06:18:14;19.97;;;10.53;;
19006;SDS011;9636;47.382;8.480;2022-10-30T06:20:41;22.47;;;10.90;;
19006;SDS011;9636;47.382;8.480;2022-10-30T06:23:08;17.87;;;11.17;;
19006;SDS011;9636;47.382;8.480;2022-10-30T06:25:35;21.43;;;11.57;;
19006;SDS011;9636;47.382;8.480;2022-10-30T06:28:02;45.97;;;13.67;;
19006;SDS011;9636;47.382;8.480;2022-10-30T06:30:31;25.87;;;13.10;;
19006;SDS011;9636;47.382;8.480;2022-10-30T06:32:58;26.70;;;13.37;;
19006;SDS011;9636;47.382;8.480;2022-10-30T06:35:26;25.50;;;13.10;;
19006;SDS011;9636;47.382;8.480;2022-10-30T06:37:54;22.97;;;12.40;;
19006;SDS011;9636;47.382;8.480;2022-10-30T06:40:24;28.83;;;12.23;;
19006;SDS011;9636;47.382;8.480;2022-10-30T06:42:52;26.40;;;12.47;;
19006;SDS011;9636;47.382;8.480;2022-10-30T06:45:19;24.83;;;12.87;;
19006;SDS011;9636;47.382;8.480;2022-10-30T06:47:49;22.90;;;12.30;;
19006;SDS011;9636;47.382;8.480;2022-10-30T06:50:16;23.83;;;12.07;;
19006;SDS011;9636;47.382;8.480;2022-10-30T06:52:44;23.43;;;12.57;;
19006;SDS011;9636;47.382;8.480;2022-10-30T06:55:12;26.43;;;12.63;;
19006;SDS011;9636;47.382;8.480;2022-10-30T06:57:39;23.40;;;12.60;;
19006;SDS011;9636;47.382;8.480;2022-10-30T07:00:06;25.17;;;12.83;;
19006;SDS011;9636;47.382;8.480;2022-10-30T07:02:34;26.77;;;12.50;;
19006;SDS011;9636;47.382;8.480;2022-10-30T07:05:02;30.20;;;13.63;;
19006;SDS011;9636;47.382;8.480;2022-10-30T07:07:29;32.70;;;16.37;;
19006;SDS011;9636;47.382;8.480;2022-10-30T07:09:56;28.67;;;15.50;;
19006;SDS011;9636;47.382;8.480;2022-10-30T07:12:23;24.80;;;13.40;;
19006;SDS011;9636;47.382;8.480;2022-10-30T07:14:50;27.77;;;14.20;;
19006;SDS011;9636;47.382;8.480;2022-10-30T07:17:16;44.27;;;14.33;;
19006;SDS011;9636;47.382;8.480;2022-10-30T07:19:43;42.03;;;14.77;;
19006;SDS011;9636;47.382;8.480;2022-10-30T07:22:11;51.63;;;15.63;;
19006;SDS011;9636;47.382;8.480;2022-10-30T07:24:38;34.43;;;14.57;;
19006;SDS011;9636;47.382;8.480;2022-10-30T07:27:05;39.47;;;15.77;;
19006;SDS011;9636;47.382;8.480;2022-10-30T07:29:32;25.87;;;14.47;;
19006;SDS011;9636;47.382;8.480;2022-10-30T07:31:58;29.87;;;15.17;;
19006;SDS011;9636;47.382;8.480;2022-10-30T07:34:25;28.37;;;15.07;;
19006;SDS011;9636;47.382;8.480;2022-10-30T07:36:52;27.40;;;15.80;;
19006;SDS011;9636;47.382;8.480;2022-10-30T07:39:20;29.00;;;16.17;;
19006;SDS011;9636;47.382;8.480;2022-10-30T07:41:47;30.67;;;16.40;;
19006;SDS011;9636;47.382;8.480;2022-10-30T07:44:14;30.43;;;16.70;;
19006;SDS011;9636;47.382;8.480;2022-10-30T07:46:41;29.67;;;16.17;;
19006;SDS011;9636;47.382;8.480;2022-10-30T07:49:08;34.70;;;16.80;;
19006;SDS011;9636;47.382;8.480;2022-10-30T07:51:34;30.70;;;16.33;;
19006;SDS011;9636;47.382;8.480;2022-10-30T07:54:01;28.00;;;15.60;;
19006;SDS011;9636;47.382;8.480;2022-10-30T07:56:30;28.27;;;14.87;;
19006;SDS011;9636;47.382;8.480;2022-10-30T07:58:56;34.40;;;16.97;;
19006;SDS011;9636;47.382;8.480;2022-10-30T08:01:23;30.27;;;15.73;;
19006;SDS011;9636;47.382;8.480;2022-10-30T08:03:50;26.17;;;16.13;;
19006;SDS011;9636;47.382;8.480;2022-10-30T08:06:17;25.77;;;15.43;;
19006;SDS011;9636;47.382;8.480;2022-10-30T08:08:43;38.73;;;14.73;;
19006;SDS011;9636;47.382;8.480;2022-10-30T08:11:10;33.30;;;14.30;;
19006;SDS011;9636;47.382;8.480;2022-10-30T08:13:38;23.77;;;14.23;;
19006;SDS011;9636;47.382;8.480;2022-10-30T08:16:05;30.00;;;15.17;;
19006;SDS011;9636;47.382;8.480;2022-10-30T08:18:32;26.43;;;14.70;;
19006;SDS011;9636;47.382;8.480;2022-10-30T08:20:59;53.33;;;15.63;;
19006;SDS011;9636;47.382;8.480;2022-10-30T08:23:26;38.67;;;16.87;;
19006;SDS011;9636;47.382;8.480;2022-10-30T08:25:55;42.23;;;16.07;;
19006;SDS011;9636;47.382;8.480;2022-10-30T08:28:25;22.60;;;14.23;;
19006;SDS011;9636;47.382;8.480;2022-10-30T08:30:53;29.13;;;13.97;;
19006;SDS011;9636;47.382;8.480;2022-10-30T08:33:20;23.93;;;17.07;;
19006;SDS011;9636;47.382;8.480;2022-10-30T08:35:47;25.70;;;16.43;;
19006;SDS011;9636;47.382;8.480;2022-10-30T08:38:15;23.63;;;14.67;;
19006;SDS011;9636;47.382;8.480;2022-10-30T08:40:42;26.43;;;14.87;;
19006;SDS011;9636;47.382;8.480;2022-10-30T08:43:09;25.37;;;14.80;;
19006;SDS011;9636;47.382;8.480;2022-10-30T08:45:36;29.90;;;15.40;;
19006;SDS011;9636;47.382;8.480;2022-10-30T08:48:04;25.37;;;15.80;;
19006;SDS011;9636;47.382;8.480;2022-10-30T08:50:32;23.93;;;15.10;;
19006;SDS011;9636;47.382;8.480;2022-10-30T08:53:00;24.63;;;14.83;;
19006;SDS011;9636;47.382;8.480;2022-10-30T08:55:27;25.90;;;15.50;;
19006;SDS011;9636;47.382;8.480;2022-10-30T08:57:54;24.67;;;14.93;;
19006;SDS011;9636;47.382;8.480;2022-10-30T09:00:21;20.97;;;14.40;;
19006;SDS011;9636;47.382;8.480;2022-10-30T09:02:48;19.53;;;14.03;;
19006;SDS011;9636;47.382;8.480;2022-10-30T09:05:16;24.77;;;13.73;;
19006;SDS011;9636;47.382;8.480;2022-10-30T09:07:43;25.33;;;13.43;;
19006;SDS011;9636;47.382;8.480;2022-10-30T09:10:10;25.17;;;13.33;;
19006;SDS011;9636;47.382;8.480;2022-10-30T09:12:37;20.63;;;13.97;;
19006;SDS011;9636;47.382;8.480;2022-10-30T09:15:05;21.77;;;13.70;;
19006;SDS011;9636;47.382;8.480;2022-10-30T09:17:32;17.53;;;13.03;;
19006;SDS011;9636;47.382;8.480;2022-10-30T09:19:59;17.67;;;12.60;;
19006;SDS011;9636;47.382;8.480;2022-10-30T09:22:28;20.23;;;12.80;;
19006;SDS011;9636;47.382;8.480;2022-10-30T09:24:54;20.17;;;13.00;;
19006;SDS011;9636;47.382;8.480;2022-10-30T09:27:21;20.43;;;13.07;;
19006;SDS011;9636;47.382;8.480;2022-10-30T09:29:48;23.80;;;13.10;;
19006;SDS011;9636;47.382;8.480;2022-10-30T09:32:15;20.97;;;13.57;;
19006;SDS011;9636;47.382;8.480;2022-10-30T09:34:41;19.07;;;13.33;;
19006;SDS011;9636;47.382;8.480;2022-10-30T09:37:08;18.13;;;13.13;;
19006;SDS011;9636;47.382;8.480;2022-10-30T09:39:37;21.30;;;13.30;;
19006;SDS011;9636;47.382;8.480;2022-10-30T09:45:05;18.90;;;12.93;;
19006;SDS011;9636;47.382;8.480;2022-10-30T09:48:09;17.93;;;12.07;;
19006;SDS011;9636;47.382;8.480;2022-10-30T09:50:44;18.97;;;12.60;;
19006;SDS011;9636;47.382;8.480;2022-10-30T09:53:22;22.20;;;13.37;;
19006;SDS011;9636;47.382;8.480;2022-10-30T09:56:01;22.87;;;14.70;;
19006;SDS011;9636;47.382;8.480;2022-10-30T09:58:35;24.97;;;14.47;;
19006;SDS011;9636;47.382;8.480;2022-10-30T10:01:10;26.63;;;15.63;;
19006;SDS011;9636;47.382;8.480;2022-10-30T10:03:48;24.93;;;16.53;;
19006;SDS011;9636;47.382;8.480;2022-10-30T10:06:22;26.47;;;16.63;;
19006;SDS011;9636;47.382;8.480;2022-10-30T10:08:51;22.63;;;15.17;;
19006;SDS011;9636;47.382;8.480;2022-10-30T10:11:24;25.00;;;15.53;;
19006;SDS011;9636;47.382;8.480;2022-10-30T10:13:56;22.50;;;15.37;;
19006;SDS011;9636;47.382;8.480;2022-10-30T10:16:27;20.00;;;14.80;;
19006;SDS011;9636;47.382;8.480;2022-10-30T10:18:57;26.23;;;16.17;;
19006;SDS011;9636;47.382;8.480;2022-10-30T10:21:32;27.07;;;16.00;;
19006;SDS011;9636;47.382;8.480;2022-10-30T10:24:08;26.23;;;15.93;;
19006;SDS011;9636;47.382;8.480;2022-10-30T10:26:46;25.87;;;16.93;;
19006;SDS011;9636;47.382;8.480;2022-10-30T10:29:27;24.37;;;16.57;;
19006;SDS011;9636;47.382;8.480;2022-10-30T10:32:03;27.67;;;16.17;;
19006;SDS011;9636;47.382;8.480;2022-10-30T10:34:44;29.23;;;16.70;;
19006;SDS011;9636;47.382;8.480;2022-10-30T10:37:21;26.33;;;17.10;;
19006;SDS011;9636;47.382;8.480;2022-10-30T10:39:59;26.77;;;16.23;;
19006;SDS011;9636;47.382;8.480;2022-10-30T10:42:37;26.43;;;15.87;;
19006;SDS011;9636;47.382;8.480;2022-10-30T10:45:16;29.40;;;16.47;;
19006;SDS011;9636;47.382;8.480;2022-10-30T10:47:53;28.37;;;16.70;;
19006;SDS011;9636;47.382;8.480;2022-10-30T10:50:44;25.50;;;17.57;;
19006;SDS011;9636;47.382;8.480;2022-10-30T10:53:17;28.00;;;16.37;;
19006;SDS011;9636;47.382;8.480;2022-10-30T10:55:48;23.30;;;16.17;;
19006;SDS011;9636;47.382;8.480;2022-10-30T10:58:22;24.17;;;16.50;;
19006;SDS011;9636;47.382;8.480;2022-10-30T11:00:55;27.63;;;16.40;;
19006;SDS011;9636;47.382;8.480;2022-10-30T11:03:24;29.87;;;15.83;;
19006;SDS011;9636;47.382;8.480;2022-10-30T11:05:58;29.37;;;16.63;;
19006;SDS011;9636;47.382;8.480;2022-10-30T11:08:31;29.20;;;16.10;;
19006;SDS011;9636;47.382;8.480;2022-10-30T11:10:59;25.20;;;15.80;;
19006;SDS011;9636;47.382;8.480;2022-10-30T11:13:32;23.73;;;15.37;;
19006;SDS011;9636;47.382;8.480;2022-10-30T11:16:03;27.47;;;16.33;;
19006;SDS011;9636;47.382;8.480;2022-10-30T11:18:41;26.00;;;16.23;;
19006;SDS011;9636;47.382;8.480;2022-10-30T11:21:09;22.50;;;15.13;;
19006;SDS011;9636;47.382;8.480;2022-10-30T11:23:42;21.77;;;15.57;;
19006;SDS011;9636;47.382;8.480;2022-10-30T11:26:23;23.00;;;14.30;;
19006;SDS011;9636;47.382;8.480;2022-10-30T11:28:57;27.53;;;15.73;;
19006;SDS011;9636;47.382;8.480;2022-10-30T11:31:29;22.30;;;15.77;;
19006;SDS011;9636;47.382;8.480;2022-10-30T11:34:11;21.23;;;14.73;;
19006;SDS011;9636;47.382;8.480;2022-10-30T11:36:40;24.90;;;15.33;;
19006;SDS011;9636;47.382;8.480;2022-10-30T11:39:10;22.97;;;15.60;;
19006;SDS011;9636;47.382;8.480;2022-10-30T11:41:43;27.23;;;15.53;;
19006;SDS011;9636;47.382;8.480;2022-10-30T11:44:20;25.00;;;16.40;;
19006;SDS011;9636;47.382;8.480;2022-10-30T11:46:48;31.60;;;16.17;;
19006;SDS011;9636;47.382;8.480;2022-10-30T11:49:26;34.20;;;15.63;;
19006;SDS011;9636;47.382;8.480;2022-10-30T11:51:58;27.77;;;15.70;;
19006;SDS011;9636;47.382;8.480;2022-10-30T11:54:26;25.87;;;15.67;;
19006;SDS011;9636;47.382;8.480;2022-10-30T11:56:53;24.30;;;15.53;;
19006;SDS011;9636;47.382;8.480;2022-10-30T11:59:22;25.93;;;14.83;;
19006;SDS011;9636;47.382;8.480;2022-10-30T12:01:56;24.13;;;14.90;;
19006;SDS011;9636;47.382;8.480;2022-10-30T12:04:25;24.90;;;14.67;;
19006;SDS011;9636;47.382;8.480;2022-10-30T12:07:05;19.27;;;13.73;;
19006;SDS011;9636;47.382;8.480;2022-10-30T12:09:40;25.07;;;13.97;;
19006;SDS011;9636;47.382;8.480;2022-10-30T12:12:11;25.03;;;14.90;;
19006;SDS011;9636;47.382;8.480;2022-10-30T12:14:46;19.77;;;13.37;;
19006;SDS011;9636;47.382;8.480;2022-10-30T12:17:13;18.27;;;13.03;;
19006;SDS011;9636;47.382;8.480;2022-10-30T12:19:44;22.43;;;12.90;;
19006;SDS011;9636;47.382;8.480;2022-10-30T12:22:21;20.83;;;12.93;;
19006;SDS011;9636;47.382;8.480;2022-10-30T12:24:50;24.53;;;12.30;;
19006;SDS011;9636;47.382;8.480;2022-10-30T12:27:17;24.23;;;13.70;;
19006;SDS011;9636;47.382;8.480;2022-10-30T12:29:48;23.90;;;13.13;;
19006;SDS011;9636;47.382;8.480;2022-10-30T12:32:27;19.97;;;13.33;;
19006;SDS011;9636;47.382;8.480;2022-10-30T12:34:59;22.53;;;12.40;;
19006;SDS011;9636;47.382;8.480;2022-10-30T12:37:30;23.43;;;13.37;;
19006;SDS011;9636;47.382;8.480;2022-10-30T12:40:00;23.37;;;13.13;;
19006;SDS011;9636;47.382;8.480;2022-10-30T12:42:30;22.30;;;13.73;;
19006;SDS011;9636;47.382;8.480;2022-10-30T12:45:06;19.20;;;13.33;;
19006;SDS011;9636;47.382;8.480;2022-10-30T12:47:40;26.23;;;12.97;;
19006;SDS011;9636;47.382;8.480;2022-10-30T12:50:13;21.70;;;13.37;;
19006;SDS011;9636;47.382;8.480;2022-10-30T12:52:45;18.20;;;11.37;;
19006;SDS011;9636;47.382;8.480;2022-10-30T12:55:19;19.50;;;13.90;;
19006;SDS011;9636;47.382;8.480;2022-10-30T12:57:51;18.13;;;12.63;;
19006;SDS011;9636;47.382;8.480;2022-10-30T13:00:24;23.53;;;12.10;;
19006;SDS011;9636;47.382;8.480;2022-10-30T13:02:55;21.57;;;12.77;;
19006;SDS011;9636;47.382;8.480;2022-10-30T13:05:27;21.80;;;13.20;;
19006;SDS011;9636;47.382;8.480;2022-10-30T13:08:13;24.07;;;12.23;;
19006;SDS011;9636;47.382;8.480;2022-10-30T13:10:47;20.40;;;12.27;;
19006;SDS011;9636;47.382;8.480;2022-10-30T13:13:19;20.87;;;12.57;;
19006;SDS011;9636;47.382;8.480;2022-10-30T13:15:50;17.73;;;12.03;;
19006;SDS011;9636;47.382;8.480;2022-10-30T13:18:20;22.10;;;13.03;;
19006;SDS011;9636;47.382;8.480;2022-10-30T13:20:54;25.50;;;14.00;;
19006;SDS011;9636;47.382;8.480;2022-10-30T13:23:27;20.83;;;12.63;;
19006;SDS011;9636;47.382;8.480;2022-10-30T13:26:04;23.40;;;13.80;;
19006;SDS011;9636;47.382;8.480;2022-10-30T13:28:37;24.63;;;14.20;;
19006;SDS011;9636;47.382;8.480;2022-10-30T14:06:39;28.20;;;13.60;;
19006;SDS011;9636;47.382;8.480;2022-10-30T14:09:18;23.97;;;13.60;;
19006;SDS011;9636;47.382;8.480;2022-10-30T14:11:51;21.67;;;13.93;;
19006;SDS011;9636;47.382;8.480;2022-10-30T14:14:28;21.27;;;14.03;;
19006;SDS011;9636;47.382;8.480;2022-10-30T14:17:06;23.13;;;13.40;;
19006;SDS011;9636;47.382;8.480;2022-10-30T14:22:40;23.47;;;12.93;;
19006;SDS011;9636;47.382;8.480;2022-10-30T14:25:11;21.97;;;13.13;;
19006;SDS011;9636;47.382;8.480;2022-10-30T14:27:39;24.83;;;13.37;;
19006;SDS011;9636;47.382;8.480;2022-10-30T14:30:14;22.53;;;13.10;;
19006;SDS011;9636;47.382;8.480;2022-10-30T14:32:47;24.27;;;13.90;;
19006;SDS011;9636;47.382;8.480;2022-10-30T14:35:29;27.23;;;13.93;;
19006;SDS011;9636;47.382;8.480;2022-10-30T14:38:24;23.07;;;13.53;;
19006;SDS011;9636;47.382;8.480;2022-10-30T14:40:56;25.50;;;12.77;;
19006;SDS011;9636;47.382;8.480;2022-10-30T14:43:35;22.70;;;13.37;;
19006;SDS011;9636;47.382;8.480;2022-10-30T14:46:12;21.40;;;12.80;;
19006;SDS011;9636;47.382;8.480;2022-10-30T14:48:50;20.63;;;12.03;;
19006;SDS011;9636;47.382;8.480;2022-10-30T14:51:27;19.00;;;13.17;;
19006;SDS011;9636;47.382;8.480;2022-10-30T14:54:03;21.60;;;12.80;;
19006;SDS011;9636;47.382;8.480;2022-10-30T14:56:40;23.83;;;12.37;;
19006;SDS011;9636;47.382;8.480;2022-10-30T15:02:10;23.33;;;13.67;;
19006;SDS011;9636;47.382;8.480;2022-10-30T15:04:52;21.37;;;12.70;;
19006;SDS011;9636;47.382;8.480;2022-10-30T15:07:32;18.60;;;12.37;;
19006;SDS011;9636;47.382;8.480;2022-10-30T15:10:11;24.50;;;13.37;;
19006;SDS011;9636;47.382;8.480;2022-10-30T15:12:49;17.57;;;12.17;;
19006;SDS011;9636;47.382;8.480;2022-10-30T15:15:25;29.50;;;15.10;;
19006;SDS011;9636;47.382;8.480;2022-10-30T15:17:52;20.60;;;13.17;;
19006;SDS011;9636;47.382;8.480;2022-10-30T15:20:22;28.17;;;15.60;;
19006;SDS011;9636;47.382;8.480;2022-10-30T15:22:51;23.10;;;15.27;;
19006;SDS011;9636;47.382;8.480;2022-10-30T15:25:21;26.77;;;15.37;;
19006;SDS011;9636;47.382;8.480;2022-10-30T15:27:50;27.00;;;15.07;;
19006;SDS011;9636;47.382;8.480;2022-10-30T15:30:20;24.47;;;14.20;;
19006;SDS011;9636;47.382;8.480;2022-10-30T15:32:48;29.00;;;15.13;;
19006;SDS011;9636;47.382;8.480;2022-10-30T15:35:16;23.57;;;14.13;;
19006;SDS011;9636;47.382;8.480;2022-10-30T15:37:57;23.53;;;14.47;;
19006;SDS011;9636;47.382;8.480;2022-10-30T15:40:27;23.53;;;14.50;;
19006;SDS011;9636;47.382;8.480;2022-10-30T15:42:54;21.33;;;14.43;;
19006;SDS011;9636;47.382;8.480;2022-10-30T15:45:24;23.03;;;14.37;;
19006;SDS011;9636;47.382;8.480;2022-10-30T15:47:56;28.87;;;15.30;;
19006;SDS011;9636;47.382;8.480;2022-10-30T15:50:26;26.63;;;14.13;;
19006;SDS011;9636;47.382;8.480;2022-10-30T15:52:53;23.60;;;14.20;;
19006;SDS011;9636;47.382;8.480;2022-10-30T15:55:23;21.27;;;12.77;;
19006;SDS011;9636;47.382;8.480;2022-10-30T15:57:54;26.20;;;13.47;;
19006;SDS011;9636;47.382;8.480;2022-10-30T16:00:25;27.67;;;13.30;;
19006;SDS011;9636;47.382;8.480;2022-10-30T16:02:57;20.53;;;12.47;;
19006;SDS011;9636;47.382;8.480;2022-10-30T16:05:25;20.13;;;11.93;;
19006;SDS011;9636;47.382;8.480;2022-10-30T16:07:54;20.97;;;12.43;;
19006;SDS011;9636;47.382;8.480;2022-10-30T16:10:22;25.33;;;13.60;;
19006;SDS011;9636;47.382;8.480;2022-10-30T16:12:52;23.37;;;13.77;;
19006;SDS011;9636;47.382;8.480;2022-10-30T16:15:23;25.00;;;13.60;;
19006;SDS011;9636;47.382;8.480;2022-10-30T16:17:59;22.40;;;14.10;;
19006;SDS011;9636;47.382;8.480;2022-10-30T16:20:31;29.40;;;14.93;;
19006;SDS011;9636;47.382;8.480;2022-10-30T16:22:59;27.07;;;15.37;;
19006;SDS011;9636;47.382;8.480;2022-10-30T16:25:26;24.27;;;14.13;;
19006;SDS011;9636;47.382;8.480;2022-10-30T16:27:57;25.90;;;14.50;;
19006;SDS011;9636;47.382;8.480;2022-10-30T16:30:23;28.47;;;14.80;;
19006;SDS011;9636;47.382;8.480;2022-10-30T16:32:53;24.43;;;14.97;;
19006;SDS011;9636;47.382;8.480;2022-10-30T16:35:21;30.63;;;16.03;;
19006;SDS011;9636;47.382;8.480;2022-10-30T16:37:49;25.13;;;16.17;;
19006;SDS011;9636;47.382;8.480;2022-10-30T16:40:18;28.53;;;15.57;;
19006;SDS011;9636;47.382;8.480;2022-10-30T16:42:49;36.20;;;16.37;;
19006;SDS011;9636;47.382;8.480;2022-10-30T16:48:15;21.97;;;14.10;;
19006;SDS011;9636;47.382;8.480;2022-10-30T16:50:44;27.53;;;15.30;;
19006;SDS011;9636;47.382;8.480;2022-10-30T16:53:14;25.87;;;14.73;;
19006;SDS011;9636;47.382;8.480;2022-10-30T16:55:44;28.77;;;15.00;;
19006;SDS011;9636;47.382;8.480;2022-10-30T16:58:11;29.73;;;15.50;;
19006;SDS011;9636;47.382;8.480;2022-10-30T17:00:39;20.77;;;14.93;;
19006;SDS011;9636;47.382;8.480;2022-10-30T17:03:08;26.77;;;14.20;;
19006;SDS011;9636;47.382;8.480;2022-10-30T17:05:36;26.80;;;15.50;;
19006;SDS011;9636;47.382;8.480;2022-10-30T17:08:05;24.53;;;14.80;;
19006;SDS011;9636;47.382;8.480;2022-10-30T17:10:53;25.03;;;14.20;;
19006;SDS011;9636;47.382;8.480;2022-10-30T17:13:31;25.63;;;15.13;;
19006;SDS011;9636;47.382;8.480;2022-10-30T17:16:10;29.57;;;15.80;;
19006;SDS011;9636;47.382;8.480;2022-10-30T17:18:44;25.43;;;14.17;;
19006;SDS011;9636;47.382;8.480;2022-10-30T17:21:12;26.17;;;14.63;;
19006;SDS011;9636;47.382;8.480;2022-10-30T17:24:46;24.67;;;14.57;;
19006;SDS011;9636;47.382;8.480;2022-10-30T17:26:36;24.53;;;14.50;;
19006;SDS011;9636;47.382;8.480;2022-10-30T17:29:29;26.90;;;13.50;;
19006;SDS011;9636;47.382;8.480;2022-10-30T17:32:28;23.63;;;12.63;;
19006;SDS011;9636;47.382;8.480;2022-10-30T17:35:17;25.67;;;12.43;;
19006;SDS011;9636;47.382;8.480;2022-10-30T17:37:48;20.27;;;10.93;;
19006;SDS011;9636;47.382;8.480;2022-10-30T17:40:39;22.83;;;11.03;;
19006;SDS011;9636;47.382;8.480;2022-10-30T17:43:10;19.70;;;11.33;;
19006;SDS011;9636;47.382;8.480;2022-10-30T17:45:39;19.10;;;9.63;;
19006;SDS011;9636;47.382;8.480;2022-10-30T17:48:09;16.43;;;8.93;;
19006;SDS011;9636;47.382;8.480;2022-10-30T17:50:42;19.80;;;10.43;;
19006;SDS011;9636;47.382;8.480;2022-10-30T17:53:12;19.40;;;11.00;;
19006;SDS011;9636;47.382;8.480;2022-10-30T17:55:46;22.20;;;12.23;;
19006;SDS011;9636;47.382;8.480;2022-10-30T17:58:25;23.70;;;11.90;;
19006;SDS011;9636;47.382;8.480;2022-10-30T18:03:55;22.27;;;13.07;;
19006;SDS011;9636;47.382;8.480;2022-10-30T18:06:33;22.77;;;12.77;;
19006;SDS011;9636;47.382;8.480;2022-10-30T18:09:15;24.37;;;12.67;;
19006;SDS011;9636;47.382;8.480;2022-10-30T18:11:59;23.97;;;12.93;;
19006;SDS011;9636;47.382;8.480;2022-10-30T18:15:21;35.30;;;14.00;;
19006;SDS011;9636;47.382;8.480;2022-10-30T18:18:43;24.07;;;13.90;;
19006;SDS011;9636;47.382;8.480;2022-10-30T18:26:48;21.37;;;13.07;;
19006;SDS011;9636;47.382;8.480;2022-10-30T18:29:43;25.97;;;14.20;;
19006;SDS011;9636;47.382;8.480;2022-10-30T18:32:32;27.37;;;14.60;;
19006;SDS011;9636;47.382;8.480;2022-10-30T18:35:12;26.00;;;14.87;;
19006;SDS011;9636;47.382;8.480;2022-10-30T18:41:27;23.10;;;14.83;;
19006;SDS011;9636;47.382;8.480;2022-10-30T18:44:14;31.57;;;15.47;;
19006;SDS011;9636;47.382;8.480;2022-10-30T18:46:55;29.87;;;15.00;;
19006;SDS011;9636;47.382;8.480;2022-10-30T18:51:08;28.37;;;16.43;;
19006;SDS011;9636;47.382;8.480;2022-10-30T18:52:37;27.23;;;15.20;;
19006;SDS011;9636;47.382;8.480;2022-10-30T18:55:18;25.00;;;15.30;;
19006;SDS011;9636;47.382;8.480;2022-10-30T18:57:55;28.10;;;15.03;;
19006;SDS011;9636;47.382;8.480;2022-10-30T19:00:26;26.60;;;14.77;;
19006;SDS011;9636;47.382;8.480;2022-10-30T19:05:05;25.20;;;15.33;;
19006;SDS011;9636;47.382;8.480;2022-10-30T19:06:43;29.83;;;15.33;;
19006;SDS011;9636;47.382;8.480;2022-10-30T19:12:35;27.10;;;15.73;;
19006;SDS011;9636;47.382;8.480;2022-10-30T19:15:07;26.33;;;14.80;;
19006;SDS011;9636;47.382;8.480;2022-10-30T19:17:43;30.03;;;15.10;;
19006;SDS011;9636;47.382;8.480;2022-10-30T19:20:52;36.47;;;15.97;;
19006;SDS011;9636;47.382;8.480;2022-10-30T19:23:23;25.77;;;14.13;;
19006;SDS011;9636;47.382;8.480;2022-10-30T19:26:01;26.90;;;15.27;;
19006;SDS011;9636;47.382;8.480;2022-10-30T19:28:36;26.93;;;16.13;;
19006;SDS011;9636;47.382;8.480;2022-10-30T19:31:05;25.60;;;15.07;;
19006;SDS011;9636;47.382;8.480;2022-10-30T19:33:46;30.70;;;16.97;;
19006;SDS011;9636;47.382;8.480;2022-10-30T19:36:25;29.80;;;16.90;;
19006;SDS011;9636;47.382;8.480;2022-10-30T19:38:55;29.87;;;16.17;;
19006;SDS011;9636;47.382;8.480;2022-10-30T19:41:24;29.80;;;17.13;;
19006;SDS011;9636;47.382;8.480;2022-10-30T19:43:51;29.23;;;16.30;;
19006;SDS011;9636;47.382;8.480;2022-10-30T19:46:18;27.30;;;16.00;;
19006;SDS011;9636;47.382;8.480;2022-10-30T19:48:46;30.10;;;16.47;;
19006;SDS011;9636;47.382;8.480;2022-10-30T19:51:14;27.93;;;15.13;;
19006;SDS011;9636;47.382;8.480;2022-10-30T19:54:12;29.10;;;14.97;;
19006;SDS011;9636;47.382;8.480;2022-10-30T19:56:41;25.17;;;14.87;;
19006;SDS011;9636;47.382;8.480;2022-10-30T19:59:08;29.70;;;14.70;;
19006;SDS011;9636;47.382;8.480;2022-10-30T20:01:49;28.87;;;15.10;;
19006;SDS011;9636;47.382;8.480;2022-10-30T20:04:16;30.43;;;15.70;;
19006;SDS011;9636;47.382;8.480;2022-10-30T20:06:43;23.27;;;13.97;;
19006;SDS011;9636;47.382;8.480;2022-10-30T20:09:16;25.47;;;14.07;;
19006;SDS011;9636;47.382;8.480;2022-10-30T20:11:57;29.53;;;15.57;;
19006;SDS011;9636;47.382;8.480;2022-10-30T20:14:31;26.70;;;14.10;;
19006;SDS011;9636;47.382;8.480;2022-10-30T20:17:02;33.63;;;15.13;;
19006;SDS011;9636;47.382;8.480;2022-10-30T20:19:31;25.60;;;14.97;;
19006;SDS011;9636;47.382;8.480;2022-10-30T20:22:10;23.00;;;15.07;;
19006;SDS011;9636;47.382;8.480;2022-10-30T20:24:53;27.87;;;15.53;;
19006;SDS011;9636;47.382;8.480;2022-10-30T20:27:23;26.53;;;15.03;;
19006;SDS011;9636;47.382;8.480;2022-10-30T20:29:55;26.90;;;16.03;;
19006;SDS011;9636;47.382;8.480;2022-10-30T20:32:37;29.00;;;16.00;;
19006;SDS011;9636;47.382;8.480;2022-10-30T20:35:21;26.10;;;14.90;;
19006;SDS011;9636;47.382;8.480;2022-10-30T20:37:55;30.53;;;16.30;;
19006;SDS011;9636;47.382;8.480;2022-10-30T20:41:00;33.93;;;16.50;;
19006;SDS011;9636;47.382;8.480;2022-10-30T20:43:37;29.03;;;16.60;;
19006;SDS011;9636;47.382;8.480;2022-10-30T20:46:09;28.53;;;16.07;;
19006;SDS011;9636;47.382;8.480;2022-10-30T20:52:02;29.53;;;16.27;;
19006;SDS011;9636;47.382;8.480;2022-10-30T21:05:05;26.20;;;16.17;;
19006;SDS011;9636;47.382;8.480;2022-10-30T21:08:02;30.70;;;16.87;;
19006;SDS011;9636;47.382;8.480;2022-10-30T21:10:43;32.40;;;15.70;;
19006;SDS011;9636;47.382;8.480;2022-10-30T21:13:10;32.67;;;15.07;;
19006;SDS011;9636;47.382;8.480;2022-10-30T21:15:37;27.20;;;14.20;;
19006;SDS011;9636;47.382;8.480;2022-10-30T21:18:05;32.10;;;15.67;;
19006;SDS011;9636;47.382;8.480;2022-10-30T21:20:33;26.63;;;15.73;;
19006;SDS011;9636;47.382;8.480;2022-10-30T21:23:00;29.80;;;15.57;;
19006;SDS011;9636;47.382;8.480;2022-10-30T21:25:27;27.60;;;15.37;;
19006;SDS011;9636;47.382;8.480;2022-10-30T21:27:56;24.73;;;15.00;;